KDLF/DLF METAR and TAF weather

Enter ICAO airport designator
Station Type Date Time Source
KDLF METAR 2021/08/05 04:56 UTC NOAA

KDLF 050456Z AUTO 15005KT 10SM SCT090 26/23 A3004 RMK AO2 SLP160 T02630225 $


Station Type Date Time Source
KDLF Decoded METAR 2021/08/05 04:56 UTC NOAA

Laughlin, Laughlin Air Force Base Auxiliary Airfield, TX, United States (KDLF) 29-07-00N 100-28-00W 294M
Aug 05, 2021 - 12:56 AM EDT / 2021.08.05 0456 UTC
Wind: from the SSE (150 degrees) at 6 MPH (5 KT):0
Visibility: 10 mile(s):0
Sky conditions: partly cloudy
Temperature: 79.3 F (26.3 C)
Dew Point: 72.5 F (22.5 C)
Relative Humidity: 79%
Pressure (altimeter): 30.04 in. Hg (1017 hPa)
ob: KDLF 050456Z AUTO 15005KT 10SM SCT090 26/23 A3004 RMK AO2 SLP160 T02630225
cycle: 5

Station Type Date Time Source
KDLF TAF 2021/08/05 00:48 UTC NOAA

TAF KDLF 050030Z 0500/0601 11012G18KT 9999 VCSH SCT040 BKN070 BKN250 QNH2995INS
BECMG 0505/0506 VRB06KT 9999 NSW SCT020 BKN230 QNH3000INS
BECMG 0509/0510 VRB06KT 9999 VCTS BKN020CB BKN230 QNH3003INS
BECMG 0517/0518 12010KT 9999 NSW FEW030 SCT070 BKN100 QNH3002INS TX32/0500Z TN24/0512Z LAST NO
AMDS AFT 0500 NEXT 0511

Example: see airport list